CheckWX is a tool to help pilots better visualize weather data.  It is not intended as a substitute for an official pre-flight weather briefing.

04:23:55 UTC

KAXS METAR
Altus / Quartz Mountain Regional Airport
Altus, Oklahoma, USA
Current

29 mins ago

KAXS 250355Z AUTO 00000KT 10SM CLR 16/11 A2987 RMK AO2 T01610111
Observed
Apr-25 @ 03:55 UTC
Visibility
10 SM
Flight Rules
VFR
Cloud Levels
  • Clear skies
Temperature
16°C / 61°F
Dewpoint
11°C / 52°F
Humidity
72%
Altimeter
29.87" Hg
Pressure
1011.52 hPa
Previous

49 mins ago

KAXS 250335Z AUTO 00000KT 10SM CLR 16/11 A2987 RMK AO2 T01590114
Observed
Apr-25 @ 03:35 UTC
Visibility
10 SM
Flight Rules
VFR
Cloud Levels
  • Clear skies
Temperature
16°C / 61°F
Dewpoint
11°C / 52°F
Humidity
72%
Altimeter
29.87" Hg
Pressure
1011.52 hPa
Previous

1 hour ago

KAXS 250315Z AUTO 00000KT 10SM CLR 16/11 A2987 RMK AO2 T01610114
Observed
Apr-25 @ 03:15 UTC
Visibility
10 SM
Flight Rules
VFR
Cloud Levels
  • Clear skies
Temperature
16°C / 61°F
Dewpoint
11°C / 52°F
Humidity
72%
Altimeter
29.87" Hg
Pressure
1011.52 hPa